Time;durP1;ratioP1;P1;durP2;ratioP2;P2;SDS_P1;SDS_P2;PMS_P1;PMS_P2;Temp;Humidity;BMP_temperature;BMP_pressure;BME280_temperature;BME280_humidity;BME280_pressure;Samples;Min_cycle;Max_cycle;Signal;HPM_P1;HPM_P2
2022/04/19 00:01:07;;;;;;;2.83;1.83;;;8.80;99.90;;;;;;4933283;29;20199;-68
2022/04/19 00:03:33;;;;;;;3.40;2.43;;;8.80;99.90;;;;;;4916622;29;20646;-69
2022/04/19 00:05:58;;;;;;;3.00;1.93;;;8.70;99.90;;;;;;4934065;28;20204;-69
2022/04/19 00:08:24;;;;;;;3.83;2.10;;;8.60;99.90;;;;;;4936634;29;20219;-69
2022/04/19 00:10:49;;;;;;;4.07;2.40;;;8.60;99.90;;;;;;4937367;28;20204;-69
2022/04/19 00:13:18;;;;;;;5.07;2.20;;;8.60;99.90;;;;;;4937428;29;20208;-69
2022/04/19 00:15:44;;;;;;;3.80;1.60;;;8.60;99.90;;;;;;4937828;29;20179;-69
2022/04/19 00:18:11;;;;;;;2.73;1.87;;;8.70;99.90;;;;;;4936605;28;20615;-68
2022/04/19 00:20:39;;;;;;;3.63;2.30;;;8.60;99.90;;;;;;4920141;29;20224;-69
2022/04/19 00:23:09;;;;;;;2.73;1.70;;;8.60;99.90;;;;;;4937114;28;20232;-69
2022/04/19 00:25:36;;;;;;;3.00;1.37;;;8.60;99.90;;;;;;4937143;29;20243;-69
2022/04/19 00:28:01;;;;;;;3.27;1.70;;;8.70;99.90;;;;;;4936442;28;20696;-69
2022/04/19 00:30:27;;;;;;;2.33;1.60;;;8.70;99.90;;;;;;4937017;29;20176;-69
2022/04/19 00:32:52;;;;;;;2.73;1.87;;;8.60;99.90;;;;;;4937175;29;20712;-69
2022/04/19 00:35:18;;;;;;;3.60;1.90;;;8.50;99.90;;;;;;4937103;28;20306;-69
2022/04/19 00:37:43;;;;;;;4.63;2.27;;;8.60;99.90;;;;;;4936629;29;20584;-69
2022/04/19 00:40:09;;;;;;;3.37;1.87;;;8.50;99.90;;;;;;4936580;28;20180;-69
2022/04/19 00:42:36;;;;;;;4.07;1.97;;;8.40;99.90;;;;;;4920117;29;20303;-69
2022/04/19 00:45:05;;;;;;;3.03;1.63;;;8.40;99.90;;;;;;4936959;29;20404;-69
2022/04/19 00:47:32;;;;;;;2.80;1.80;;;8.50;99.90;;;;;;4936409;28;20319;-69
2022/04/19 00:50:01;;;;;;;3.23;1.80;;;8.60;99.90;;;;;;4936077;29;20302;-69
2022/04/19 00:52:30;;;;;;;2.07;1.43;;;8.60;99.90;;;;;;4936690;28;20579;-69
2022/04/19 00:54:56;;;;;;;2.30;1.77;;;8.60;99.90;;;;;;4937198;29;20641;-69
2022/04/19 00:57:24;;;;;;;5.33;2.23;;;8.70;99.90;;;;;;4936542;29;20232;-68
2022/04/19 00:59:53;;;;;;;2.57;1.97;;;8.50;99.90;;;;;;4935484;28;20232;-69
2022/04/19 01:02:19;;;;;;;3.90;2.03;;;8.50;99.90;;;;;;4919266;29;20219;-69
2022/04/19 01:04:45;;;;;;;4.87;2.40;;;8.30;99.90;;;;;;4936478;28;20208;-69
2022/04/19 01:07:11;;;;;;;2.60;1.80;;;8.40;99.90;;;;;;4919453;29;20681;-69
2022/04/19 01:09:37;;;;;;;4.57;2.20;;;8.50;99.90;;;;;;4935985;29;20290;-69
2022/04/19 01:14:49;;;;;;;2.90;1.90;;;8.20;99.90;;;;;;4936559;29;20290;-68
2022/04/19 01:17:15;;;;;;;2.77;1.80;;;8.10;99.90;;;;;;4935768;28;20299;-68
2022/04/19 01:19:41;;;;;;;4.80;1.60;;;8.10;99.90;;;;;;4935400;29;20215;-68
2022/04/19 01:22:12;;;;;;;3.33;2.07;;;8.10;99.90;;;;;;4935964;28;20259;-68
2022/04/19 01:24:39;;;;;;;2.40;1.80;;;8.10;99.90;;;;;;4919379;29;20184;-67
2022/04/19 01:27:05;;;;;;;2.53;1.90;;;8.10;99.90;;;;;;4935900;29;20208;-67
2022/04/19 01:29:32;;;;;;;3.73;2.87;;;8.00;99.90;;;;;;4917554;29;20220;-68
2022/04/19 01:32:00;;;;;;;4.10;2.27;;;7.90;99.90;;;;;;4936041;29;20211;-68
2022/04/19 01:34:27;;;;;;;4.57;2.20;;;8.00;99.90;;;;;;4935785;28;20271;-68
2022/04/19 01:36:52;;;;;;;5.00;2.03;;;8.00;99.90;;;;;;4936409;29;20176;-68
2022/04/19 01:39:18;;;;;;;4.00;1.97;;;7.80;99.90;;;;;;4918265;29;20215;-67
2022/04/19 01:41:44;;;;;;;4.63;2.40;;;7.90;99.90;;;;;;4935818;28;20215;-67
2022/04/19 01:44:09;;;;;;;3.00;1.70;;;8.00;99.90;;;;;;4935892;29;20282;-68
2022/04/19 01:46:35;;;;;;;4.73;2.43;;;7.90;99.90;;;;;;4935553;28;20363;-67
2022/04/19 01:49:02;;;;;;;3.03;2.00;;;7.90;99.90;;;;;;4917972;29;20656;-68
2022/04/19 01:51:28;;;;;;;4.63;1.90;;;7.90;99.90;;;;;;4935904;29;20190;-67
2022/04/19 01:53:55;;;;;;;4.13;2.10;;;7.90;99.90;;;;;;4918550;29;20208;-67
2022/04/19 01:56:21;;;;;;;2.37;1.67;;;7.90;99.90;;;;;;4935550;29;20214;-68
2022/04/19 01:58:48;;;;;;;3.63;2.10;;;7.70;99.90;;;;;;4917745;29;20231;-68
2022/04/19 02:01:13;;;;;;;3.23;1.93;;;7.60;99.90;;;;;;4935143;29;20188;-68
2022/04/19 02:03:39;;;;;;;3.97;2.20;;;7.60;99.90;;;;;;4946443;29;20234;-67
2022/04/19 02:06:08;;;;;;;3.20;1.90;;;7.70;99.90;;;;;;4949461;28;20219;-68
2022/04/19 02:08:34;;;;;;;3.20;2.00;;;7.80;99.90;;;;;;4938458;29;20223;-67
2022/04/19 02:11:00;;;;;;;3.23;1.97;;;7.80;99.90;;;;;;4935414;28;20208;-68
2022/04/19 02:13:26;;;;;;;3.23;2.07;;;7.80;99.90;;;;;;4914648;29;20217;-67
2022/04/19 02:15:52;;;;;;;3.47;2.23;;;7.80;99.90;;;;;;4899798;29;20264;-68
2022/04/19 02:18:18;;;;;;;5.20;2.40;;;7.70;99.90;;;;;;4915434;29;20220;-67
2022/04/19 02:20:45;;;;;;;3.20;2.07;;;7.60;99.90;;;;;;4897961;29;20224;-68
2022/04/19 02:23:13;;;;;;;5.13;2.27;;;7.70;99.90;;;;;;4930457;29;20227;-68
2022/04/19 02:25:39;;;;;;;2.70;2.00;;;7.70;99.90;;;;;;4935008;29;20224;-68
2022/04/19 02:28:06;;;;;;;6.17;2.30;;;7.80;99.90;;;;;;4934095;29;20561;-67
2022/04/19 02:30:32;;;;;;;3.90;2.10;;;7.80;99.90;;;;;;4934449;29;20267;-68
2022/04/19 02:32:58;;;;;;;5.13;2.47;;;7.80;99.90;;;;;;4934752;29;20287;-68
2022/04/19 02:35:23;;;;;;;3.80;2.00;;;7.80;99.90;;;;;;4934551;29;20287;-68
2022/04/19 02:37:54;;;;;;;3.13;2.37;;;7.40;99.90;;;;;;4934506;29;20558;-68
2022/04/19 02:40:21;;;;;;;3.57;2.00;;;7.50;99.90;;;;;;4934346;29;20229;-68
2022/04/19 02:42:48;;;;;;;3.03;2.17;;;7.60;99.90;;;;;;4927068;29;20206;-68
2022/04/19 02:45:13;;;;;;;5.77;2.40;;;7.60;99.90;;;;;;4934284;29;20255;-68
2022/04/19 02:47:41;;;;;;;3.13;2.40;;;7.60;99.90;;;;;;4933960;29;20688;-66
2022/04/19 02:50:07;;;;;;;6.17;2.40;;;7.60;99.90;;;;;;4934034;29;20243;-67
2022/04/19 02:52:32;;;;;;;3.40;2.33;;;7.50;99.90;;;;;;4933951;29;20219;-67
2022/04/19 02:54:58;;;;;;;4.90;2.47;;;7.50;99.90;;;;;;4934940;29;20194;-68
2022/04/19 02:57:23;;;;;;;3.07;2.30;;;7.50;99.90;;;;;;4934154;29;20222;-67
2022/04/19 02:59:49;;;;;;;3.93;2.43;;;7.50;99.90;;;;;;4933416;29;20211;-67
2022/04/19 03:02:14;;;;;;;5.60;2.63;;;7.20;99.90;;;;;;4934269;29;20215;-68
2022/04/19 03:04:41;;;;;;;3.20;2.27;;;7.30;99.90;;;;;;4934128;29;20239;-68
2022/04/19 03:07:07;;;;;;;4.33;2.27;;;7.20;99.90;;;;;;4934342;29;20188;-68
2022/04/19 03:09:32;;;;;;;4.60;2.47;;;7.20;99.90;;;;;;4933769;29;20207;-67
2022/04/19 03:11:58;;;;;;;4.93;2.03;;;7.20;99.90;;;;;;4917190;29;20216;-67
2022/04/19 03:14:25;;;;;;;6.80;2.97;;;7.20;99.90;;;;;;4933678;29;20247;-66
2022/04/19 03:16:51;;;;;;;4.27;2.40;;;7.30;99.90;;;;;;4934119;29;20214;-67
2022/04/19 03:19:17;;;;;;;4.80;2.10;;;7.00;99.90;;;;;;4916533;29;20180;-67
2022/04/19 03:21:42;;;;;;;5.17;2.30;;;7.00;99.90;;;;;;4917028;29;20217;-69
2022/04/19 03:29:36;;;;;;;4.17;2.50;;;6.90;99.90;;;;;;4933005;29;20226;-68
2022/04/19 03:32:02;;;;;;;2.83;1.97;;;6.90;99.90;;;;;;4933768;29;20704;-68
2022/04/19 03:34:28;;;;;;;4.13;2.70;;;6.90;99.90;;;;;;4933614;29;20702;-68
2022/04/19 03:36:54;;;;;;;3.87;2.30;;;7.00;99.90;;;;;;4917227;29;20227;-68
2022/04/19 03:39:19;;;;;;;3.33;2.20;;;6.90;99.90;;;;;;4933045;29;20212;-68
2022/04/19 03:41:45;;;;;;;3.97;2.60;;;6.90;99.90;;;;;;4933072;29;20211;-68
2022/04/19 03:44:12;;;;;;;3.67;2.27;;;6.90;99.90;;;;;;4933384;29;20677;-68
2022/04/19 03:47:07;;;;;;;6.87;2.40;;;6.90;99.90;;;;;;4933504;29;20211;-68
2022/04/19 03:49:26;;;;;;;4.70;2.70;;;6.80;99.90;;;;;;4932653;29;20237;-67
2022/04/19 03:51:52;;;;;;;6.83;3.57;;;6.80;99.90;;;;;;4933759;29;20582;-68
2022/04/19 03:54:17;;;;;;;4.67;3.00;;;6.80;99.90;;;;;;4933636;29;20215;-68
2022/04/19 03:56:43;;;;;;;4.57;2.50;;;6.70;99.90;;;;;;4916369;29;20339;-68
2022/04/19 03:59:10;;;;;;;6.53;2.60;;;6.70;99.90;;;;;;4932854;29;20216;-68
2022/04/19 04:01:38;;;;;;;3.50;2.70;;;6.60;99.90;;;;;;4933182;29;20207;-67
2022/04/19 04:04:04;;;;;;;4.90;2.97;;;6.70;99.90;;;;;;4933553;29;20184;-68
2022/04/19 04:06:30;;;;;;;4.87;2.57;;;6.70;99.90;;;;;;4916462;29;20186;-67
2022/04/19 04:08:55;;;;;;;4.63;2.47;;;6.80;99.90;;;;;;4932552;29;20214;-67
2022/04/19 04:11:21;;;;;;;3.67;2.80;;;6.70;99.90;;;;;;4933287;29;20223;-67
2022/04/19 04:13:47;;;;;;;5.17;2.80;;;6.60;99.90;;;;;;4913654;29;20707;-68
2022/04/19 04:16:12;;;;;;;5.50;2.63;;;6.70;99.90;;;;;;4933458;29;20676;-69
2022/04/19 04:18:39;;;;;;;5.23;2.93;;;6.80;99.90;;;;;;4933000;29;20194;-68
2022/04/19 04:21:05;;;;;;;7.63;3.10;;;6.70;99.90;;;;;;4916255;29;20724;-68
2022/04/19 04:23:33;;;;;;;6.90;3.07;;;6.60;99.90;;;;;;4954759;23;20231;-70
2022/04/19 04:25:58;;;;;;;6.13;2.83;;;6.60;99.90;;;;;;4933320;29;20291;-69
2022/04/19 04:28:24;;;;;;;4.13;2.63;;;6.70;99.90;;;;;;4932014;28;20326;-70
2022/04/19 04:30:49;;;;;;;7.13;3.30;;;6.70;99.90;;;;;;4933690;29;20179;-70
2022/04/19 04:33:15;;;;;;;7.33;3.30;;;6.90;99.90;;;;;;4946427;28;20865;-69
2022/04/19 04:35:40;;;;;;;3.90;2.73;;;7.50;99.90;;;;;;4952091;29;20226;-69
2022/04/19 04:38:06;;;;;;;4.77;2.83;;;9.90;99.90;;;;;;4951753;29;20297;-70
2022/04/19 04:40:31;;;;;;;5.07;2.80;;;11.50;99.90;;;;;;4952212;29;20215;-70
2022/04/19 04:42:57;;;;;;;8.00;3.33;;;12.70;99.90;;;;;;4935276;29;20692;-70
2022/04/19 04:45:22;;;;;;;4.63;2.73;;;13.50;99.90;;;;;;4952244;29;20230;-70
2022/04/19 04:50:31;;;;;;;4.97;3.17;;;12.80;99.90;;;;;;4952379;29;20306;-70
2022/04/19 04:52:57;;;;;;;10.97;3.40;;;14.80;99.90;;;;;;4953989;28;20298;-70
2022/04/19 04:55:24;;;;;;;5.60;3.53;;;15.40;99.90;;;;;;4955732;29;20916;-70
2022/04/19 04:57:49;;;;;;;5.20;3.10;;;16.40;99.90;;;;;;4956304;29;20182;-70
2022/04/19 05:00:15;;;;;;;6.90;3.75;;;17.10;99.90;;;;;;4955371;29;20211;-70
2022/04/19 05:02:41;;;;;;;5.00;2.85;;;17.20;99.60;;;;;;4955380;29;20596;-70
2022/04/19 05:05:07;;;;;;;7.53;3.90;;;17.70;97.70;;;;;;4955577;28;20218;-71
2022/04/19 05:07:36;;;;;;;5.30;3.22;;;18.20;96.70;;;;;;4955517;29;20215;-70
2022/04/19 05:10:02;;;;;;;4.18;3.05;;;18.90;95.10;;;;;;4954654;28;20199;-70
2022/04/19 05:12:27;;;;;;;6.13;3.42;;;18.60;93.70;;;;;;4955645;28;20233;-70
2022/04/19 05:14:52;;;;;;;4.43;2.85;;;18.90;93.30;;;;;;4955392;29;20199;-70
2022/04/19 05:17:18;;;;;;;4.78;3.25;;;18.70;93.50;;;;;;4938262;29;20208;-70
2022/04/19 05:19:43;;;;;;;4.03;2.65;;;18.80;93.00;;;;;;4954501;29;20203;-70
2022/04/19 05:22:09;;;;;;;4.28;2.90;;;19.50;92.00;;;;;;4954995;28;20186;-69
2022/04/19 05:24:34;;;;;;;4.63;3.15;;;19.40;91.40;;;;;;4955642;29;20877;-68
2022/04/19 05:27:00;;;;;;;4.93;3.00;;;19.70;91.30;;;;;;4955393;29;20206;-69
2022/04/19 05:29:25;;;;;;;4.57;2.88;;;19.60;90.10;;;;;;4954296;29;20222;-68
2022/04/19 05:31:51;;;;;;;6.72;3.20;;;19.90;90.60;;;;;;4936711;29;20588;-68
2022/04/19 05:34:16;;;;;;;3.70;2.85;;;19.60;90.40;;;;;;4955012;28;20285;-68
2022/04/19 05:36:42;;;;;;;5.40;3.45;;;20.50;89.80;;;;;;4955304;29;20269;-68
2022/04/19 05:39:07;;;;;;;4.35;2.83;;;20.20;88.30;;;;;;4954422;29;20214;-69
2022/04/19 05:41:35;;;;;;;4.90;2.67;;;20.60;87.40;;;;;;4954986;28;20344;-69
2022/04/19 05:44:00;;;;;;;4.80;3.30;;;19.10;89.40;;;;;;4937614;29;20203;-69
2022/04/19 05:46:26;;;;;;;4.40;3.10;;;20.60;88.40;;;;;;4954811;29;20250;-69
2022/04/19 05:48:52;;;;;;;5.60;3.03;;;20.90;87.00;;;;;;4954390;29;20209;-69
2022/04/19 05:51:17;;;;;;;6.10;3.40;;;21.40;84.70;;;;;;4954723;29;20285;-69
2022/04/19 05:53:43;;;;;;;6.13;3.42;;;21.50;84.10;;;;;;4954411;28;20656;-69
2022/04/19 05:56:08;;;;;;;5.50;3.08;;;21.30;82.80;;;;;;4954748;29;20293;-69
2022/04/19 05:58:34;;;;;;;4.53;3.05;;;20.70;82.20;;;;;;4936490;29;20238;-69
2022/04/19 06:01:01;;;;;;;5.55;3.40;;;19.70;83.60;;;;;;4954559;29;20171;-69
2022/04/19 06:06:11;;;;;;;7.68;3.35;;;20.00;83.70;;;;;;4954634;28;20277;-70
2022/04/19 06:08:36;;;;;;;4.57;3.17;;;18.40;86.70;;;;;;4953584;29;20771;-70
2022/04/19 06:11:02;;;;;;;3.35;2.50;;;18.80;88.20;;;;;;4954386;28;20688;-70
2022/04/19 06:13:28;;;;;;;5.50;3.00;;;19.90;85.90;;;;;;4954394;28;20596;-70
2022/04/19 06:15:53;;;;;;;5.28;3.58;;;19.80;84.60;;;;;;4937445;29;20178;-70
2022/04/19 06:18:19;;;;;;;3.35;2.95;;;20.60;83.50;;;;;;4953502;29;20239;-71
2022/04/19 06:20:44;;;;;;;4.90;3.15;;;20.80;81.40;;;;;;4954137;29;20265;-69
2022/04/19 06:23:11;;;;;;;3.20;2.60;;;21.70;79.90;;;;;;4954166;28;20222;-69
2022/04/19 06:25:37;;;;;;;10.43;3.30;;;22.20;77.40;;;;;;4936870;29;20285;-69
2022/04/19 06:28:03;;;;;;;5.35;3.65;;;22.50;75.70;;;;;;4936409;29;20277;-69
2022/04/19 06:30:28;;;;;;;4.40;3.17;;;22.20;74.50;;;;;;4954356;29;20175;-69
2022/04/19 06:32:54;;;;;;;5.90;3.03;;;21.40;76.10;;;;;;4953735;29;20235;-69
2022/04/19 06:35:19;;;;;;;6.63;3.47;;;20.90;76.30;;;;;;4954064;28;20587;-68
2022/04/19 06:37:47;;;;;;;7.88;4.07;;;19.50;79.10;;;;;;4953583;29;20581;-70
2022/04/19 06:40:12;;;;;;;4.72;3.20;;;19.70;80.80;;;;;;4953304;28;20180;-69
2022/04/19 06:42:38;;;;;;;4.07;2.83;;;21.30;77.50;;;;;;4954036;28;20214;-69
2022/04/19 06:45:04;;;;;;;8.93;3.17;;;21.60;75.60;;;;;;4937477;29;20282;-70
2022/04/19 06:47:29;;;;;;;6.25;3.13;;;22.10;75.00;;;;;;4953467;28;20238;-69
2022/04/19 06:49:58;;;;;;;5.72;3.63;;;22.70;73.60;;;;;;4952906;29;20222;-69
2022/04/19 06:52:24;;;;;;;19.08;15.73;;;22.10;73.10;;;;;;4953460;28;20225;-70
2022/04/19 06:54:50;;;;;;;5.82;3.50;;;22.40;72.90;;;;;;4954061;29;20621;-69
2022/04/19 06:57:15;;;;;;;4.38;3.88;;;22.00;73.00;;;;;;4935246;29;20322;-69
2022/04/19 06:59:41;;;;;;;5.80;4.00;;;21.90;72.20;;;;;;4952836;29;20222;-70
2022/04/19 07:02:06;;;;;;;7.32;3.97;;;22.40;71.80;;;;;;4953066;29;20315;-69
2022/04/19 07:04:32;;;;;;;4.93;3.55;;;22.40;70.60;;;;;;4935943;29;20290;-70
2022/04/19 07:06:58;;;;;;;5.63;3.92;;;21.10;73.00;;;;;;4936868;29;20175;-70
2022/04/19 07:09:24;;;;;;;6.50;4.18;;;22.40;71.20;;;;;;4935677;29;20278;-70
2022/04/19 07:11:49;;;;;;;8.43;4.32;;;22.80;69.40;;;;;;4953572;28;20294;-69
2022/04/19 07:14:15;;;;;;;7.53;4.60;;;22.80;69.50;;;;;;4936337;29;20300;-69
2022/04/19 07:16:41;;;;;;;6.38;4.32;;;23.70;68.00;;;;;;4935748;29;20302;-70
2022/04/19 07:19:06;;;;;;;8.95;4.47;;;23.70;66.10;;;;;;4952927;29;20179;-70
2022/04/19 07:27:00;;;;;;;4.30;3.47;;;23.60;65.20;;;;;;4947321;29;20258;-70
2022/04/19 07:29:26;;;;;;;6.55;4.20;;;25.10;63.30;;;;;;4952609;28;20227;-71
2022/04/19 07:31:51;;;;;;;4.90;4.20;;;24.30;62.40;;;;;;4953041;29;20269;-70
2022/04/19 07:34:17;;;;;;;5.88;3.95;;;22.50;63.10;;;;;;4953100;28;20210;-70
2022/04/19 07:36:43;;;;;;;6.80;4.10;;;23.20;64.60;;;;;;4953366;29;20183;-70
2022/04/19 07:39:09;;;;;;;3.97;3.08;;;24.80;61.30;;;;;;4952242;29;20294;-70
2022/04/19 07:41:34;;;;;;;11.85;5.72;;;24.40;60.30;;;;;;4935514;29;20261;-70
2022/04/19 07:44:01;;;;;;;7.72;4.63;;;23.50;60.40;;;;;;4953007;28;20572;-71
2022/04/19 07:46:28;;;;;;;4.20;3.38;;;23.70;60.90;;;;;;4952912;29;20215;-70
2022/04/19 07:48:53;;;;;;;4.90;3.67;;;23.50;60.40;;;;;;4953072;29;20230;-70
2022/04/19 07:51:19;;;;;;;6.22;3.58;;;24.00;60.10;;;;;;4953012;29;20692;-70
2022/04/19 07:53:44;;;;;;;5.45;3.40;;;23.90;59.80;;;;;;4952721;28;20233;-71
2022/04/19 07:56:10;;;;;;;5.07;3.20;;;24.20;59.70;;;;;;4952804;29;20593;-71
2022/04/19 07:58:36;;;;;;;4.43;3.20;;;24.50;59.00;;;;;;4952122;29;20346;-70
2022/04/19 08:01:01;;;;;;;3.53;2.60;;;24.30;58.30;;;;;;4953013;29;20183;-71
2022/04/19 08:03:27;;;;;;;5.25;3.50;;;23.90;58.30;;;;;;4953179;29;20743;-70
2022/04/19 08:05:53;;;;;;;5.40;3.70;;;22.20;59.70;;;;;;4935799;29;20604;-70
2022/04/19 08:08:21;;;;;;;9.07;5.50;;;22.00;61.60;;;;;;4951900;29;20218;-70
2022/04/19 08:10:50;;;;;;;8.50;3.90;;;22.70;61.70;;;;;;4935481;29;20633;-70
2022/04/19 08:13:16;;;;;;;4.45;3.38;;;23.40;60.90;;;;;;4935395;29;20684;-70
2022/04/19 08:15:42;;;;;;;4.20;2.60;;;23.90;59.50;;;;;;4952934;29;20237;-71
2022/04/19 08:18:11;;;;;;;4.57;2.20;;;24.40;58.10;;;;;;4951939;29;20690;-70
2022/04/19 08:20:37;;;;;;;2.78;2.30;;;24.40;58.00;;;;;;4952289;29;20210;-70
2022/04/19 08:23:03;;;;;;;3.25;2.35;;;23.70;58.00;;;;;;4934854;29;20222;-70
2022/04/19 08:25:29;;;;;;;3.97;2.70;;;23.60;57.90;;;;;;4935402;29;20566;-69
2022/04/19 08:27:54;;;;;;;4.90;3.65;;;21.90;59.60;;;;;;4954572;28;20226;-70
2022/04/19 08:30:20;;;;;;;3.05;2.40;;;21.90;61.00;;;;;;4938785;29;20687;-70
2022/04/19 08:32:45;;;;;;;2.88;2.08;;;22.70;61.00;;;;;;4948378;29;20257;-69
2022/04/19 08:35:12;;;;;;;4.57;2.85;;;23.60;60.00;;;;;;4939007;29;20219;-70
2022/04/19 08:37:38;;;;;;;4.15;2.50;;;23.20;60.30;;;;;;4955983;29;20211;-69
2022/04/19 08:40:06;;;;;;;3.63;2.42;;;23.20;60.40;;;;;;4938011;29;20202;-70
2022/04/19 08:42:32;;;;;;;6.55;3.45;;;23.00;60.40;;;;;;4938864;29;20289;-70
2022/04/19 08:45:02;;;;;;;6.47;3.40;;;23.30;60.50;;;;;;4956023;29;20617;-70
2022/04/19 08:47:32;;;;;;;2.40;2.00;;;23.40;60.00;;;;;;4938474;29;20242;-70
2022/04/19 08:50:00;;;;;;;3.53;2.50;;;22.90;59.80;;;;;;4955057;29;20277;-69
2022/04/19 08:52:26;;;;;;;4.28;2.30;;;23.10;60.30;;;;;;4938179;29;20269;-69
2022/04/19 08:57:38;;;;;;;3.20;2.00;;;21.70;61.70;;;;;;4956721;29;20222;-69
2022/04/19 09:00:06;;;;;;;6.32;2.75;;;22.20;61.30;;;;;;4955586;29;20215;-69
2022/04/19 09:02:32;;;;;;;2.88;2.30;;;20.00;63.80;;;;;;4938125;29;20210;-70
2022/04/19 09:05:21;;;;;;;5.88;3.63;;;20.60;65.10;;;;;;4938215;29;20211;-69
2022/04/19 09:07:49;;;;;;;3.63;1.73;;;21.20;65.00;;;;;;4947801;29;20269;-72
2022/04/19 09:10:24;;;;;;;2.97;1.83;;;21.60;63.50;;;;;;4938316;29;20210;-72
2022/04/19 09:12:57;;;;;;;4.18;2.47;;;21.30;63.20;;;;;;4956233;28;20345;-69
2022/04/19 09:15:23;;;;;;;3.88;2.65;;;18.90;66.60;;;;;;4955152;29;20218;-70
2022/04/19 09:17:50;;;;;;;6.03;2.60;;;17.80;69.80;;;;;;4937929;29;20207;-71
2022/04/19 09:20:22;;;;;;;3.40;2.20;;;18.90;70.60;;;;;;4954974;29;20604;-70
2022/04/19 09:22:58;;;;;;;6.07;2.03;;;19.00;69.50;;;;;;4938106;29;20311;-70
2022/04/19 09:25:25;;;;;;;11.10;5.03;;;19.00;69.60;;;;;;4955312;29;20266;-70
2022/04/19 09:27:54;;;;;;;3.85;2.20;;;18.90;70.50;;;;;;4955940;29;20547;-70
2022/04/19 09:30:23;;;;;;;3.03;1.92;;;19.20;69.90;;;;;;4954989;29;20703;-70
2022/04/19 09:33:25;;;;;;;3.00;1.85;;;18.80;70.40;;;;;;4937989;29;20211;-70
2022/04/19 09:35:59;;;;;;;2.53;1.55;;;18.70;71.10;;;;;;4927204;29;20237;-70
2022/04/19 09:38:44;;;;;;;4.10;1.58;;;18.60;69.50;;;;;;4937041;29;20266;-70
2022/04/19 09:41:33;;;;;;;3.72;1.40;;;16.80;71.90;;;;;;4938044;29;20226;-70
2022/04/19 09:44:06;;;;;;;1.73;1.27;;;15.30;75.30;;;;;;4948795;29;20214;-70
2022/04/19 09:46:31;;;;;;;2.45;1.50;;;15.40;76.80;;;;;;4954856;29;20604;-70
2022/04/19 09:48:57;;;;;;;1.75;1.20;;;16.60;76.20;;;;;;4937472;29;20206;-70
2022/04/19 09:51:30;;;;;;;2.83;1.30;;;17.00;74.80;;;;;;4954635;29;20214;-70
2022/04/19 09:53:56;;;;;;;3.70;1.42;;;17.20;72.50;;;;;;4938206;29;20235;-70
2022/04/19 09:56:21;;;;;;;5.68;1.30;;;17.50;72.60;;;;;;4954776;29;20281;-70
2022/04/19 09:58:48;;;;;;;2.38;1.30;;;17.10;72.30;;;;;;4953792;29;20680;-71
2022/04/19 10:09:39;;;;;;;3.50;1.40;;;16.70;72.70;;;;;;4953645;29;20738;-70
2022/04/19 10:12:10;;;;;;;3.58;1.42;;;16.10;73.60;;;;;;4954459;28;20281;-70
2022/04/19 10:14:36;;;;;;;4.53;2.35;;;16.30;75.20;;;;;;4954125;29;20211;-70
2022/04/19 10:17:04;;;;;;;1.52;1.40;;;17.00;74.20;;;;;;4936969;29;20218;-68
2022/04/19 10:19:30;;;;;;;1.55;1.40;;;16.70;73.30;;;;;;4953012;29;20203;-69
2022/04/19 10:22:02;;;;;;;4.22;2.45;;;16.60;73.90;;;;;;4936881;29;20191;-72
2022/04/19 10:24:28;;;;;;;6.30;1.48;;;16.60;74.80;;;;;;4953970;23;20235;-71
2022/04/19 10:26:54;;;;;;;3.45;1.30;;;16.60;74.30;;;;;;4934335;29;20242;-69
2022/04/19 10:29:22;;;;;;;3.28;1.50;;;16.70;74.10;;;;;;4933519;29;20241;-70
2022/04/19 10:32:06;;;;;;;5.65;1.90;;;16.70;73.80;;;;;;4912644;29;20295;-69
2022/04/19 10:34:36;;;;;;;2.92;1.17;;;17.40;74.00;;;;;;4931509;29;20231;-69
2022/04/19 10:37:21;;;;;;;2.92;1.58;;;16.80;74.20;;;;;;4934221;29;20184;-69
2022/04/19 10:39:58;;;;;;;2.97;1.85;;;16.60;74.90;;;;;;4932701;29;20180;-69
2022/04/19 10:42:32;;;;;;;3.22;1.40;;;16.50;75.70;;;;;;4934668;29;20211;-70
2022/04/19 10:45:17;;;;;;;3.60;1.92;;;16.40;75.20;;;;;;4934434;29;20208;-70
2022/04/19 10:47:53;;;;;;;2.92;1.48;;;16.20;75.10;;;;;;4917249;29;20200;-70
2022/04/19 10:50:34;;;;;;;1.85;1.10;;;15.70;75.90;;;;;;4933416;29;20227;-69
2022/04/19 10:53:04;;;;;;;1.58;1.20;;;16.20;75.50;;;;;;4911570;29;20286;-70
2022/04/19 10:55:41;;;;;;;3.95;1.58;;;17.10;76.20;;;;;;4917361;29;20278;-69
2022/04/19 10:58:20;;;;;;;4.40;1.65;;;18.00;73.80;;;;;;4933663;29;20176;-69
2022/04/19 11:00:48;;;;;;;1.85;1.30;;;17.80;74.00;;;;;;4934897;29;20180;-70
2022/04/19 11:03:17;;;;;;;1.48;1.10;;;17.30;73.40;;;;;;4916907;29;20223;-69
2022/04/19 11:05:48;;;;;;;5.43;4.47;;;16.90;74.70;;;;;;4933833;29;20259;-71
2022/04/19 11:08:25;;;;;;;6.13;2.78;;;17.10;74.40;;;;;;4916261;29;20207;-70
2022/04/19 11:11:04;;;;;;;6.05;2.38;;;16.60;74.60;;;;;;4923182;29;20215;-71
2022/04/19 11:13:38;;;;;;;3.40;1.88;;;16.30;75.20;;;;;;4931668;29;20644;-71
2022/04/19 11:16:13;;;;;;;5.43;1.80;;;16.30;75.70;;;;;;4924257;29;20184;-71
2022/04/19 11:18:41;;;;;;;1.90;1.58;;;16.30;75.90;;;;;;4933499;29;20191;-70
2022/04/19 11:21:08;;;;;;;3.03;1.70;;;16.40;75.40;;;;;;4931422;29;20215;-79
2022/04/19 11:23:44;;;;;;;3.30;1.30;;;16.40;75.80;;;;;;4933644;29;20227;-70
2022/04/19 11:26:41;;;;;;;3.30;1.55;;;17.30;75.60;;;;;;4934131;29;20309;-73
2022/04/19 11:29:10;;;;;;;4.40;1.83;;;18.00;73.60;;;;;;4928213;29;20211;-71
2022/04/19 11:31:45;;;;;;;2.33;1.50;;;18.30;72.70;;;;;;4933170;29;20282;-71
2022/04/19 11:34:11;;;;;;;3.88;1.70;;;18.10;72.80;;;;;;4916841;29;20214;-71
2022/04/19 11:36:37;;;;;;;4.15;1.98;;;18.20;73.00;;;;;;4934275;29;20188;-71
2022/04/19 11:39:03;;;;;;;4.63;1.65;;;17.50;74.00;;;;;;4932472;29;20282;-70
2022/04/19 11:46:44;;;;;;;2.50;1.45;;;16.40;76.50;;;;;;4933698;29;20274;-71
2022/04/19 11:47:03;;;;;;;5.35;1.67;;;16.30;77.90;;;;;;4933502;29;20208;-71
2022/04/19 11:49:31;;;;;;;5.65;1.67;;;16.80;77.50;;;;;;4932894;29;20226;-71
2022/04/19 11:52:08;;;;;;;3.38;1.80;;;17.10;76.20;;;;;;4934273;29;20171;-71
2022/04/19 11:54:34;;;;;;;3.42;1.50;;;17.30;76.50;;;;;;4933656;29;20215;-71
2022/04/19 11:57:07;;;;;;;1.70;1.60;;;15.90;77.90;;;;;;4916680;29;20222;-71
2022/04/19 11:59:40;;;;;;;3.65;1.40;;;16.00;78.70;;;;;;4932925;29;20203;-71
2022/04/19 12:02:33;;;;;;;2.67;1.70;;;15.50;79.80;;;;;;4935633;29;20212;-71
2022/04/19 12:05:02;;;;;;;2.22;1.75;;;15.70;80.20;;;;;;4933729;29;20235;-71
2022/04/19 12:07:27;;;;;;;4.95;1.60;;;15.90;79.90;;;;;;4937478;29;20711;-71
2022/04/19 12:09:54;;;;;;;3.63;1.75;;;15.30;80.90;;;;;;4920169;29;20204;-71
2022/04/19 12:12:20;;;;;;;5.53;1.90;;;15.10;83.00;;;;;;4937693;29;20262;-69
2022/04/19 12:14:53;;;;;;;3.72;2.30;;;15.00;82.90;;;;;;4920684;29;20212;-71
2022/04/19 12:17:20;;;;;;;7.87;2.03;;;14.90;83.50;;;;;;4937478;29;20207;-71
2022/04/19 12:19:46;;;;;;;3.43;1.67;;;14.80;84.50;;;;;;4937130;29;20720;-71
2022/04/19 12:22:15;;;;;;;3.00;1.83;;;15.20;84.40;;;;;;4937719;29;20187;-71
2022/04/19 12:24:46;;;;;;;3.05;1.70;;;15.50;83.70;;;;;;4937892;29;20223;-71
2022/04/19 12:27:12;;;;;;;4.50;1.90;;;15.40;83.60;;;;;;4937908;29;20219;-70
2022/04/19 12:30:01;;;;;;;4.07;1.85;;;15.30;84.00;;;;;;4919884;29;20215;-71
2022/04/19 12:32:48;;;;;;;2.33;1.67;;;15.70;83.90;;;;;;4921306;29;20211;-71
2022/04/19 12:35:13;;;;;;;2.58;1.90;;;15.50;84.00;;;;;;4937660;29;20235;-71
2022/04/19 12:37:39;;;;;;;3.72;2.05;;;14.90;85.50;;;;;;4937052;29;20744;-68
2022/04/19 12:40:05;;;;;;;4.57;1.90;;;14.70;87.60;;;;;;4936948;29;20179;-70
2022/04/19 12:42:48;;;;;;;4.17;2.20;;;14.50;88.30;;;;;;4937870;29;20737;-71
2022/04/19 12:45:13;;;;;;;6.37;2.30;;;14.80;88.40;;;;;;4937402;29;20226;-70
2022/04/19 12:47:45;;;;;;;4.00;1.73;;;14.70;88.00;;;;;;4936670;29;20713;-68
2022/04/19 12:50:13;;;;;;;2.33;1.37;;;14.50;89.30;;;;;;4936848;29;20799;-70
2022/04/19 12:52:39;;;;;;;3.87;2.50;;;14.40;90.00;;;;;;4920505;29;20297;-70
2022/04/19 12:55:06;;;;;;;2.20;1.73;;;14.00;90.40;;;;;;4936817;29;20677;-71
2022/04/19 13:00:53;;;;;;;2.93;1.77;;;14.60;90.40;;;;;;4937065;29;20215;-71
2022/04/19 13:03:19;;;;;;;2.60;1.60;;;15.00;90.20;;;;;;4936200;29;20216;-71
2022/04/19 13:13:58;;;;;;;2.97;1.45;;;16.30;86.90;;;;;;4930893;29;20676;-71
2022/04/19 13:16:24;;;;;;;2.13;1.30;;;15.60;85.60;;;;;;4937225;29;20208;-71
2022/04/19 13:18:49;;;;;;;2.55;1.55;;;15.80;86.90;;;;;;4937212;29;20653;-70
2022/04/19 13:21:15;;;;;;;2.40;1.33;;;15.80;85.70;;;;;;4920208;29;20222;-71
2022/04/19 13:23:40;;;;;;;2.50;1.52;;;15.80;86.80;;;;;;4937173;29;20253;-70
2022/04/19 13:26:06;;;;;;;5.30;2.55;;;16.00;86.20;;;;;;4937618;29;20219;-69
2022/04/19 13:28:31;;;;;;;4.18;1.60;;;16.00;86.40;;;;;;4936448;29;20220;-70
2022/04/19 13:30:57;;;;;;;3.97;1.60;;;15.80;87.00;;;;;;4937729;29;20175;-71
2022/04/19 13:33:22;;;;;;;2.95;1.40;;;15.80;86.70;;;;;;4936340;29;20231;-69
2022/04/19 13:35:47;;;;;;;1.83;1.23;;;16.00;87.10;;;;;;4937249;29;20562;-70
2022/04/19 13:38:25;;;;;;;2.75;1.40;;;16.20;85.70;;;;;;4936423;29;20207;-70